createdAt,value
2023-05-20T00:01:33.574Z,12.90
2023-05-20T00:04:09.647Z,12.90
2023-05-20T00:06:45.769Z,12.90
2023-05-20T00:09:21.656Z,12.80
2023-05-20T00:11:57.577Z,12.80
2023-05-20T00:14:33.498Z,12.70
2023-05-20T00:17:09.420Z,12.70
2023-05-20T00:19:45.344Z,12.70
2023-05-20T00:22:21.589Z,12.70
2023-05-20T00:24:57.469Z,12.70
2023-05-20T00:27:33.391Z,12.70
2023-05-20T00:30:10.821Z,12.60
2023-05-20T00:32:48.082Z,12.70
2023-05-20T00:35:24.188Z,12.60
2023-05-20T00:38:00.136Z,12.60
2023-05-20T00:40:36.114Z,12.60
2023-05-20T00:43:12.232Z,12.60
2023-05-20T00:45:48.329Z,12.60
2023-05-20T00:48:24.382Z,12.60
2023-05-20T00:51:01.092Z,12.70
2023-05-20T00:53:37.239Z,12.70
2023-05-20T00:56:13.607Z,12.80
2023-05-20T00:58:50.927Z,12.80
2023-05-20T01:01:26.874Z,12.80
2023-05-20T01:04:03.126Z,12.80
2023-05-20T01:06:40.105Z,12.80
2023-05-20T01:09:16.069Z,12.80
2023-05-20T01:12:04.225Z,12.90
2023-05-20T01:15:11.989Z,12.80
2023-05-20T01:17:53.083Z,12.80
2023-05-20T01:20:32.454Z,12.80
2023-05-20T01:23:09.563Z,12.90
2023-05-20T01:25:45.442Z,12.90
2023-05-20T01:28:23.396Z,12.90
2023-05-20T01:31:04.111Z,12.90
2023-05-20T01:33:41.104Z,12.90
2023-05-20T01:36:18.688Z,12.90
2023-05-20T01:38:56.140Z,12.80
2023-05-20T01:41:34.458Z,12.80
2023-05-20T01:44:10.533Z,12.80
2023-05-20T01:46:50.862Z,12.70
2023-05-20T01:49:27.013Z,12.70
2023-05-20T01:52:03.391Z,12.70
2023-05-20T01:54:39.332Z,12.70
2023-05-20T01:57:15.505Z,12.70
2023-05-20T01:59:51.928Z,12.70
2023-05-20T02:02:28.015Z,12.70
2023-05-20T02:05:04.270Z,12.70
2023-05-20T02:07:40.168Z,12.70
2023-05-20T02:10:16.212Z,12.70
2023-05-20T02:12:52.181Z,12.70
2023-05-20T02:15:28.116Z,12.70
2023-05-20T02:18:06.199Z,12.70
2023-05-20T02:20:42.657Z,12.60
2023-05-20T02:23:18.610Z,12.60
2023-05-20T02:25:54.491Z,12.60
2023-05-20T02:28:30.378Z,12.60
2023-05-20T02:31:06.516Z,12.50
2023-05-20T02:33:42.483Z,12.50
2023-05-20T02:36:18.550Z,12.50
2023-05-20T02:38:56.778Z,12.60
2023-05-20T02:41:32.719Z,12.50
2023-05-20T02:44:08.697Z,12.50
2023-05-20T02:46:44.636Z,12.50
2023-05-20T02:49:20.697Z,12.50
2023-05-20T02:51:56.920Z,12.50
2023-05-20T02:54:33.039Z,12.40
2023-05-20T02:57:08.984Z,12.40
2023-05-20T02:59:46.016Z,12.40
2023-05-20T03:02:23.464Z,12.30
2023-05-20T03:04:59.698Z,12.30
2023-05-20T03:07:37.080Z,12.30
2023-05-20T03:10:16.046Z,12.30
2023-05-20T03:12:53.236Z,12.30
2023-05-20T03:15:29.163Z,12.30
2023-05-20T03:18:06.434Z,12.30
2023-05-20T03:20:42.805Z,12.30
2023-05-20T03:23:18.895Z,12.30
2023-05-20T03:25:55.878Z,12.30
2023-05-20T03:28:31.793Z,12.30
2023-05-20T03:31:07.766Z,12.30
2023-05-20T03:33:45.470Z,12.30
2023-05-20T03:36:21.578Z,12.20
2023-05-20T03:38:57.880Z,12.20
2023-05-20T03:41:33.760Z,12.20
2023-05-20T03:44:09.733Z,12.20
2023-05-20T03:46:46.108Z,12.20
2023-05-20T03:49:22.926Z,12.10
2023-05-20T03:51:58.819Z,12.10
2023-05-20T03:54:36.182Z,12.10
2023-05-20T03:57:12.642Z,12.10
2023-05-20T03:59:48.564Z,12.10
2023-05-20T04:02:24.636Z,12.10
2023-05-20T04:05:02.285Z,12.00
2023-05-20T04:07:38.962Z,12.10
2023-05-20T04:10:20.460Z,12.00
2023-05-20T04:12:56.610Z,12.10
2023-05-20T04:15:36.873Z,12.10
2023-05-20T04:18:13.815Z,12.10
2023-05-20T04:20:56.392Z,12.10
2023-05-20T04:23:32.967Z,12.20
2023-05-20T04:26:08.949Z,12.20
2023-05-20T04:28:48.637Z,12.20
2023-05-20T04:31:28.362Z,12.30
2023-05-20T04:34:04.426Z,12.30
2023-05-20T04:36:40.747Z,12.40
2023-05-20T04:39:20.484Z,12.40
2023-05-20T04:42:00.607Z,12.50
2023-05-20T04:44:36.907Z,12.50
2023-05-20T04:47:12.881Z,12.60
2023-05-20T04:49:50.288Z,12.60
2023-05-20T04:52:26.680Z,12.60
2023-05-20T04:55:03.045Z,12.60
2023-05-20T04:57:43.611Z,12.60
2023-05-20T05:00:19.634Z,12.60
2023-05-20T05:02:56.368Z,12.60
2023-05-20T05:05:32.610Z,12.60
2023-05-20T05:08:11.535Z,12.70
2023-05-20T05:10:52.982Z,12.80
2023-05-20T05:13:31.105Z,13.00
2023-05-20T05:16:07.374Z,13.20
2023-05-20T05:18:44.223Z,13.40
2023-05-20T05:21:20.706Z,13.50
2023-05-20T05:23:58.809Z,13.70
2023-05-20T05:26:35.075Z,13.80
2023-05-20T05:29:11.801Z,13.80
2023-05-20T05:31:48.459Z,13.90
2023-05-20T05:34:24.587Z,14.00
2023-05-20T05:37:00.965Z,14.10
2023-05-20T05:39:37.823Z,14.20
2023-05-20T05:42:14.715Z,14.30
2023-05-20T05:44:51.925Z,14.50
2023-05-20T05:47:32.796Z,14.60
2023-05-20T05:50:10.447Z,14.70
2023-05-20T05:52:47.217Z,14.80
2023-05-20T05:55:24.291Z,14.90
2023-05-20T05:58:00.411Z,14.90
2023-05-20T06:00:38.222Z,15.00
2023-05-20T06:03:14.441Z,15.10
2023-05-20T06:05:50.491Z,15.20
2023-05-20T06:08:29.467Z,15.20
2023-05-20T06:11:05.596Z,15.30
2023-05-20T06:13:41.651Z,15.40
2023-05-20T06:16:18.813Z,15.40
2023-05-20T06:18:57.247Z,15.60
2023-05-20T06:21:33.413Z,15.60
2023-05-20T06:24:09.549Z,15.60
2023-05-20T06:26:46.249Z,15.50
2023-05-20T06:29:22.227Z,15.50
2023-05-20T06:31:58.263Z,15.40
2023-05-20T06:34:34.306Z,15.40
2023-05-20T06:37:11.372Z,15.40
2023-05-20T06:39:51.375Z,15.40
2023-05-20T06:42:27.534Z,15.40
2023-05-20T06:45:13.966Z,15.50
2023-05-20T06:47:54.170Z,15.70
2023-05-20T06:50:30.115Z,15.70
2023-05-20T06:53:07.043Z,15.80
2023-05-20T06:55:42.979Z,16.00
2023-05-20T06:58:19.814Z,16.20
2023-05-20T07:00:55.758Z,16.30
2023-05-20T07:03:32.185Z,16.50
2023-05-20T07:06:08.161Z,16.60
2023-05-20T07:08:44.728Z,16.80
2023-05-20T07:11:23.145Z,16.90
2023-05-20T07:13:59.070Z,17.00
2023-05-20T07:16:36.808Z,17.20
2023-05-20T07:19:12.860Z,17.30
2023-05-20T07:21:49.955Z,17.50
2023-05-20T07:24:50.455Z,17.60
2023-05-20T07:27:26.486Z,17.50
2023-05-20T07:30:02.940Z,17.40
2023-05-20T07:32:40.493Z,17.30
2023-05-20T07:35:16.602Z,17.10
2023-05-20T07:37:53.113Z,17.10
2023-05-20T07:40:29.133Z,17.20
2023-05-20T07:43:05.076Z,17.20
2023-05-20T07:45:41.045Z,17.10
2023-05-20T07:48:17.083Z,17.10
2023-05-20T07:50:53.091Z,17.10
2023-05-20T07:53:29.313Z,17.20
2023-05-20T07:56:05.498Z,17.30
2023-05-20T07:58:42.701Z,17.60
2023-05-20T08:01:20.198Z,17.80
2023-05-20T08:03:56.351Z,17.90
2023-05-20T08:06:35.307Z,17.90
2023-05-20T08:09:16.481Z,17.90
2023-05-20T08:11:57.442Z,17.90
2023-05-20T08:14:33.391Z,18.00
2023-05-20T08:17:09.386Z,18.20
2023-05-20T08:19:46.138Z,18.30
2023-05-20T08:22:23.414Z,18.40
2023-05-20T08:24:59.417Z,18.50
2023-05-20T08:27:37.306Z,18.70
2023-05-20T08:30:14.258Z,18.90
2023-05-20T08:32:50.868Z,19.10
2023-05-20T08:35:27.076Z,19.20
2023-05-20T08:38:03.038Z,19.40
2023-05-20T08:40:39.197Z,19.50
2023-05-20T08:43:15.477Z,19.80
2023-05-20T08:45:54.932Z,19.90
2023-05-20T08:48:34.127Z,20.00
2023-05-20T08:51:13.201Z,20.00
2023-05-20T08:53:49.796Z,20.20
2023-05-20T08:56:28.182Z,20.40
2023-05-20T08:59:06.612Z,20.50
2023-05-20T09:01:43.627Z,20.70
2023-05-20T09:04:19.577Z,20.90
2023-05-20T09:06:55.742Z,20.80
2023-05-20T09:09:34.185Z,20.80
2023-05-20T09:12:11.298Z,20.90
2023-05-20T09:14:47.222Z,20.70
2023-05-20T09:17:24.157Z,20.70
2023-05-20T09:20:00.170Z,20.80
2023-05-20T09:22:36.791Z,20.70
2023-05-20T09:25:13.332Z,20.70
2023-05-20T09:27:50.576Z,20.80
2023-05-20T09:30:26.933Z,20.80
2023-05-20T09:33:05.535Z,20.90
2023-05-20T09:35:42.145Z,21.00
2023-05-20T09:38:19.396Z,21.00
2023-05-20T09:40:55.589Z,21.10
2023-05-20T09:43:31.978Z,21.40
2023-05-20T09:46:08.594Z,21.70
2023-05-20T09:48:44.762Z,22.00
2023-05-20T09:51:22.954Z,22.20
2023-05-20T09:53:59.460Z,22.30
2023-05-20T09:56:35.995Z,22.40
2023-05-20T09:59:13.883Z,22.60
2023-05-20T10:01:49.800Z,22.60
2023-05-20T10:04:26.836Z,22.60
2023-05-20T10:07:37.820Z,22.60
2023-05-20T10:10:53.742Z,22.90
2023-05-20T10:13:48.811Z,23.30
2023-05-20T10:16:54.516Z,23.30
2023-05-20T10:19:34.626Z,23.20
2023-05-20T10:22:14.391Z,23.40
2023-05-20T10:25:00.330Z,23.60
2023-05-20T10:27:44.640Z,23.50
2023-05-20T10:30:22.462Z,23.10
2023-05-20T10:33:05.055Z,22.90
2023-05-20T10:35:50.744Z,22.90
2023-05-20T10:38:26.710Z,23.10
2023-05-20T10:41:13.062Z,23.40
2023-05-20T10:44:03.836Z,23.80
2023-05-20T10:46:54.375Z,24.00
2023-05-20T10:49:36.173Z,24.20
2023-05-20T10:52:13.933Z,24.30
2023-05-20T10:54:58.635Z,24.50
2023-05-20T10:57:34.876Z,24.80
2023-05-20T11:00:11.592Z,24.80
2023-05-20T11:02:49.409Z,24.80
2023-05-20T11:05:27.142Z,24.90
2023-05-20T11:08:13.564Z,25.00
2023-05-20T11:10:59.423Z,24.90
2023-05-20T11:13:36.188Z,24.90
2023-05-20T11:16:12.929Z,24.80
2023-05-20T11:18:50.352Z,24.70
2023-05-20T11:21:26.322Z,24.60
2023-05-20T11:24:02.226Z,24.30
2023-05-20T11:26:38.503Z,24.30
2023-05-20T11:29:14.444Z,24.40
2023-05-20T11:31:53.551Z,24.50
2023-05-20T11:34:40.047Z,24.60
2023-05-20T11:37:17.786Z,24.80
2023-05-20T11:40:11.318Z,25.20
2023-05-20T11:42:47.196Z,25.40
2023-05-20T11:45:23.859Z,25.50
2023-05-20T11:48:02.355Z,25.60
2023-05-20T11:50:44.761Z,25.70
2023-05-20T11:53:22.898Z,25.60
2023-05-20T11:56:00.436Z,25.60
2023-05-20T11:58:36.398Z,25.70
2023-05-20T12:01:21.781Z,25.80
2023-05-20T12:03:59.125Z,25.70
2023-05-20T12:06:37.188Z,25.70
2023-05-20T12:09:13.977Z,25.80
2023-05-20T12:11:50.188Z,25.60
2023-05-20T12:14:26.129Z,25.80
2023-05-20T12:17:02.121Z,25.90
2023-05-20T12:19:39.801Z,26.30
2023-05-20T12:22:17.164Z,26.50
2023-05-20T12:24:54.691Z,26.80
2023-05-20T12:27:31.222Z,27.10
2023-05-20T12:30:09.837Z,27.50
2023-05-20T12:32:47.021Z,27.70
2023-05-20T12:35:38.395Z,27.70
2023-05-20T12:38:14.280Z,27.60
2023-05-20T12:40:50.177Z,27.70
2023-05-20T12:43:26.243Z,27.80
2023-05-20T12:46:02.303Z,27.80
2023-05-20T12:48:38.764Z,28.20
2023-05-20T12:51:15.915Z,28.40
2023-05-20T12:53:51.808Z,28.60
2023-05-20T12:56:27.731Z,28.90
2023-05-20T12:59:03.647Z,29.20
2023-05-20T13:01:40.302Z,28.90
2023-05-20T13:04:16.585Z,28.80
2023-05-20T13:06:52.618Z,28.80
2023-05-20T13:09:28.560Z,28.90
2023-05-20T13:12:04.970Z,29.50
2023-05-20T13:14:41.559Z,29.70
2023-05-20T13:17:17.527Z,29.90
2023-05-20T13:19:53.417Z,30.00
2023-05-20T13:22:29.332Z,30.20
2023-05-20T13:25:06.634Z,30.20
2023-05-20T13:27:42.684Z,30.10
2023-05-20T13:30:18.585Z,30.40
2023-05-20T13:32:55.493Z,30.60
2023-05-20T13:35:32.232Z,30.70
2023-05-20T13:38:08.331Z,30.70
2023-05-20T13:40:44.230Z,30.80
2023-05-20T13:43:20.156Z,30.90
2023-05-20T13:45:56.199Z,30.90
2023-05-20T13:48:33.097Z,30.90
2023-05-20T13:51:09.140Z,31.10
2023-05-20T13:53:45.056Z,31.20
2023-05-20T13:56:21.298Z,31.10
2023-05-20T13:58:57.280Z,31.00
2023-05-20T14:01:33.661Z,30.90
2023-05-20T14:04:09.977Z,30.90
2023-05-20T14:06:46.353Z,30.60
2023-05-20T14:09:22.278Z,30.40
2023-05-20T14:11:58.229Z,30.30
2023-05-20T14:14:34.191Z,30.00
2023-05-20T14:17:10.489Z,30.00
2023-05-20T14:19:46.549Z,29.80
2023-05-20T14:22:22.445Z,29.60
2023-05-20T14:24:58.521Z,29.60
2023-05-20T14:27:34.868Z,29.90
2023-05-20T14:30:11.562Z,30.10
2023-05-20T14:32:47.564Z,30.30
2023-05-20T14:35:23.515Z,30.30
2023-05-20T14:37:59.812Z,30.40
2023-05-20T14:40:36.087Z,30.50
2023-05-20T14:43:12.250Z,30.70
2023-05-20T14:45:48.993Z,30.80
2023-05-20T14:48:24.932Z,30.90
2023-05-20T14:51:00.832Z,31.20
2023-05-20T14:53:36.773Z,31.20
2023-05-20T14:56:12.698Z,31.20
2023-05-20T14:58:48.602Z,31.20
2023-05-20T15:01:24.586Z,30.90
2023-05-20T15:04:00.798Z,31.30
2023-05-20T15:06:37.134Z,31.80
2023-05-20T15:09:13.055Z,32.00
2023-05-20T15:11:49.269Z,32.00
2023-05-20T15:14:25.203Z,31.70
2023-05-20T15:17:01.164Z,31.40
2023-05-20T15:19:38.953Z,31.10
2023-05-20T15:22:16.522Z,30.80
2023-05-20T15:24:52.566Z,30.60
2023-05-20T15:27:28.466Z,30.50
2023-05-20T15:30:04.957Z,30.40
2023-05-20T15:32:42.686Z,30.40
2023-05-20T15:35:18.764Z,30.10
2023-05-20T15:37:54.730Z,29.90
2023-05-20T15:40:30.648Z,29.70
2023-05-20T15:43:07.889Z,29.70
2023-05-20T15:45:44.755Z,29.80
2023-05-20T15:48:22.105Z,30.60
2023-05-20T15:50:57.974Z,32.10
2023-05-20T15:53:33.879Z,33.40
2023-05-20T15:56:12.264Z,34.40
2023-05-20T15:58:48.623Z,34.90
2023-05-20T16:01:26.880Z,35.10
2023-05-20T16:04:02.849Z,35.00
2023-05-20T16:06:38.858Z,34.50
2023-05-20T16:09:14.794Z,34.10
2023-05-20T16:11:50.759Z,33.80
2023-05-20T16:14:26.688Z,33.80
2023-05-20T16:17:02.595Z,34.10
2023-05-20T16:19:38.602Z,34.80
2023-05-20T16:22:15.712Z,35.70
2023-05-20T16:24:51.636Z,35.60
2023-05-20T16:27:27.699Z,34.90
2023-05-20T16:30:07.416Z,34.20
2023-05-20T16:32:43.649Z,33.60
2023-05-20T16:35:19.616Z,33.10
2023-05-20T16:37:55.670Z,32.80
2023-05-20T16:40:31.938Z,32.70
2023-05-20T16:43:08.023Z,32.50
2023-05-20T16:45:44.167Z,32.70
2023-05-20T16:48:21.375Z,32.80
2023-05-20T16:50:59.739Z,32.50
2023-05-20T16:53:35.955Z,31.90
2023-05-20T16:56:14.942Z,31.60
2023-05-20T16:58:53.002Z,31.20
2023-05-20T17:01:29.504Z,30.50
2023-05-20T17:04:11.198Z,30.10
2023-05-20T17:06:50.146Z,29.60
2023-05-20T17:09:26.265Z,29.20
2023-05-20T17:12:03.751Z,28.90
2023-05-20T17:14:39.861Z,28.70
2023-05-20T17:17:16.471Z,28.40
2023-05-20T17:19:52.983Z,28.20
2023-05-20T17:22:29.032Z,28.10
2023-05-20T17:25:05.961Z,28.00
2023-05-20T17:27:42.033Z,27.90
2023-05-20T17:30:36.141Z,27.80
2023-05-20T17:33:12.722Z,27.60
2023-05-20T17:35:48.871Z,27.50
2023-05-20T17:38:26.456Z,27.30
2023-05-20T17:41:02.408Z,27.20
2023-05-20T17:43:43.087Z,27.10
2023-05-20T17:46:19.287Z,26.90
2023-05-20T17:48:56.816Z,26.60
2023-05-20T17:51:32.884Z,26.40
2023-05-20T17:54:19.576Z,26.20
2023-05-20T17:56:55.763Z,26.00
2023-05-20T17:59:33.832Z,25.90
2023-05-20T18:02:09.983Z,25.80
2023-05-20T18:04:46.203Z,25.70
2023-05-20T18:07:22.385Z,25.50
2023-05-20T18:09:58.496Z,25.40
2023-05-20T18:13:41.976Z,25.20
2023-05-20T18:16:40.080Z,25.10
2023-05-20T18:19:27.837Z,25.00
2023-05-20T18:22:19.712Z,25.00
2023-05-20T18:25:00.863Z,24.90
2023-05-20T18:27:50.861Z,24.70
2023-05-20T18:30:30.325Z,24.70
2023-05-20T18:33:06.748Z,24.60
2023-05-20T18:35:42.982Z,24.50
2023-05-20T18:38:18.973Z,24.30
2023-05-20T18:40:55.129Z,24.20
2023-05-20T18:43:31.185Z,24.10
2023-05-20T18:46:07.326Z,24.00
2023-05-20T18:48:43.351Z,23.80
2023-05-20T18:51:22.357Z,23.70
2023-05-20T18:54:01.109Z,23.60
2023-05-20T18:56:37.497Z,23.60
2023-05-20T18:59:13.652Z,23.50
2023-05-20T19:01:49.562Z,23.30
2023-05-20T19:04:26.091Z,23.20
2023-05-20T19:07:02.537Z,23.10
2023-05-20T19:09:38.458Z,23.00
2023-05-20T19:12:14.443Z,22.90
2023-05-20T19:14:50.469Z,22.80
2023-05-20T19:17:26.587Z,22.70
2023-05-20T19:20:02.620Z,22.60
2023-05-20T19:22:39.330Z,22.50
2023-05-20T19:25:15.645Z,22.40
2023-05-20T19:27:51.578Z,22.40
2023-05-20T19:30:27.626Z,22.30
2023-05-20T19:33:05.169Z,22.30
2023-05-20T19:35:41.277Z,22.20
2023-05-20T19:38:17.344Z,22.10
2023-05-20T19:40:53.271Z,22.00
2023-05-20T19:43:30.483Z,21.90
2023-05-20T19:46:06.730Z,21.90
2023-05-20T19:48:42.652Z,21.80
2023-05-20T19:51:18.643Z,21.70
2023-05-20T19:53:54.652Z,21.70
2023-05-20T19:56:30.668Z,21.60
2023-05-20T19:59:06.956Z,21.60
2023-05-20T20:01:43.161Z,21.50
2023-05-20T20:04:19.342Z,21.40
2023-05-20T20:06:55.589Z,21.40
2023-05-20T20:09:31.509Z,21.30
2023-05-20T20:12:07.757Z,21.30
2023-05-20T20:14:43.622Z,21.20
2023-05-20T20:17:20.705Z,21.10
2023-05-20T20:19:58.794Z,21.10
2023-05-20T20:22:34.764Z,21.00
2023-05-20T20:25:13.794Z,21.00
2023-05-20T20:27:50.060Z,20.90
2023-05-20T20:30:25.984Z,20.90
2023-05-20T20:33:06.162Z,20.80
2023-05-20T20:35:42.629Z,20.80
2023-05-20T20:38:19.721Z,20.70
2023-05-20T20:40:55.938Z,20.60
2023-05-20T20:43:34.907Z,20.60
2023-05-20T20:46:14.805Z,20.50
2023-05-20T20:48:50.722Z,20.50
2023-05-20T20:51:27.109Z,20.40
2023-05-20T20:54:03.233Z,20.40
2023-05-20T20:56:39.765Z,20.20
2023-05-20T20:59:15.892Z,20.10
2023-05-20T21:01:52.807Z,20.00
2023-05-20T21:04:29.066Z,20.00
2023-05-20T21:07:05.277Z,19.90
2023-05-20T21:09:41.629Z,19.80
2023-05-20T21:12:17.558Z,19.80
2023-05-20T21:14:54.574Z,19.80
2023-05-20T21:17:30.589Z,19.70
2023-05-20T21:20:07.608Z,19.70
2023-05-20T21:22:44.010Z,19.60
2023-05-20T21:25:20.026Z,19.50
2023-05-20T21:27:56.096Z,19.50
2023-05-20T21:30:32.777Z,19.40
2023-05-20T21:33:09.808Z,19.40
2023-05-20T21:35:45.912Z,19.30
2023-05-20T21:38:21.852Z,19.30
2023-05-20T21:40:58.709Z,19.20
2023-05-20T21:43:35.933Z,19.20
2023-05-20T21:46:11.951Z,19.10
2023-05-20T21:48:47.848Z,19.10
2023-05-20T21:51:23.782Z,19.00
2023-05-20T21:53:59.663Z,18.90
2023-05-20T21:56:35.534Z,18.90
2023-05-20T21:59:11.423Z,18.80
2023-05-20T22:01:47.470Z,18.80
2023-05-20T22:04:24.698Z,18.70
2023-05-20T22:07:00.825Z,18.70
2023-05-20T22:09:36.684Z,18.70
2023-05-20T22:12:15.253Z,18.60
2023-05-20T22:14:51.182Z,18.60
2023-05-20T22:17:27.217Z,18.50
2023-05-20T22:20:11.142Z,18.50
2023-05-20T22:22:47.506Z,18.40
2023-05-20T22:25:23.415Z,18.40
2023-05-20T22:27:59.360Z,18.40
2023-05-20T22:30:35.558Z,18.30
2023-05-20T22:33:11.961Z,18.30
2023-05-20T22:35:47.849Z,18.30
2023-05-20T22:38:23.925Z,18.30
2023-05-20T22:40:59.807Z,18.30
2023-05-20T22:43:36.689Z,18.30
2023-05-20T22:46:13.200Z,18.30
2023-05-20T22:48:52.797Z,18.20
2023-05-20T22:51:28.760Z,18.20
2023-05-20T22:54:06.682Z,18.20
2023-05-20T22:56:42.676Z,18.10
2023-05-20T22:59:18.584Z,18.10
2023-05-20T23:01:54.503Z,18.00
2023-05-20T23:04:30.500Z,18.00
2023-05-20T23:07:06.430Z,18.00
2023-05-20T23:09:42.325Z,17.90
2023-05-20T23:12:18.253Z,17.80
2023-05-20T23:14:54.153Z,17.80
2023-05-20T23:17:30.157Z,17.80
2023-05-20T23:20:10.826Z,17.70
2023-05-20T23:22:46.817Z,17.70
2023-05-20T23:25:24.322Z,17.70
2023-05-20T23:28:01.034Z,17.70
2023-05-20T23:30:36.969Z,17.60
2023-05-20T23:33:13.068Z,17.60
2023-05-20T23:35:49.033Z,17.60
2023-05-20T23:38:25.078Z,17.60
2023-05-20T23:41:01.089Z,17.50
2023-05-20T23:43:37.005Z,17.50
2023-05-20T23:46:12.959Z,17.50
2023-05-20T23:48:49.805Z,17.40
2023-05-20T23:51:25.860Z,17.40
2023-05-20T23:54:01.855Z,17.50
2023-05-20T23:56:37.735Z,17.40
2023-05-20T23:59:13.599Z,17.40
